createdAt,value
2023-01-02T00:02:08.271Z,8.89
2023-01-02T00:07:10.200Z,8.94
2023-01-02T00:12:11.832Z,8.88
2023-01-02T00:17:13.467Z,8.90
2023-01-02T00:22:15.153Z,8.94
2023-01-02T00:27:17.667Z,8.96
2023-01-02T00:32:19.432Z,8.84
2023-01-02T00:37:21.249Z,8.77
2023-01-02T00:42:22.903Z,8.76
2023-01-02T00:47:24.779Z,8.70
2023-01-02T00:52:26.391Z,8.61
2023-01-02T00:57:28.537Z,8.33
2023-01-02T01:02:31.899Z,8.37
2023-01-02T01:07:33.997Z,8.32
2023-01-02T01:28:12.224Z,8.18
2023-01-02T01:33:13.726Z,8.13
2023-01-02T01:38:15.220Z,8.00
2023-01-02T01:43:16.732Z,8.02
2023-01-02T01:48:18.353Z,8.22
2023-01-02T01:53:22.497Z,8.24
2023-01-02T01:58:28.828Z,8.16
2023-01-02T02:03:33.211Z,8.11
2023-01-02T02:08:37.549Z,8.12
2023-01-02T02:13:39.353Z,8.24
2023-01-02T02:19:18.063Z,8.06
2023-01-02T02:24:58.130Z,8.22
2023-01-02T02:30:14.374Z,8.33
2023-01-02T02:35:30.519Z,8.14
2023-01-02T02:40:59.806Z,7.99
2023-01-02T02:46:15.360Z,7.87
2023-01-02T02:51:23.950Z,7.83
2023-01-02T02:56:28.346Z,7.44
2023-01-02T03:01:31.233Z,7.64
2023-01-02T03:06:32.793Z,7.36
2023-01-02T03:11:48.143Z,7.60
2023-01-02T03:17:00.824Z,7.59
2023-01-02T03:22:17.142Z,7.54
2023-01-02T03:27:22.790Z,7.64
2023-01-02T03:32:35.389Z,7.29
2023-01-02T03:37:43.321Z,7.30
2023-01-02T03:42:55.343Z,7.27
2023-01-02T03:48:03.207Z,7.02
2023-01-02T03:53:04.706Z,6.91
2023-01-02T03:58:23.995Z,6.91
2023-01-02T04:03:34.968Z,6.95
2023-01-02T04:08:44.634Z,7.03
2023-01-02T04:13:51.895Z,6.94
2023-01-02T04:19:31.667Z,6.93
2023-01-02T04:24:38.795Z,7.09
2023-01-02T04:29:40.999Z,7.22
2023-01-02T04:34:44.896Z,7.32
2023-01-02T04:39:46.446Z,7.40
2023-01-02T04:44:47.904Z,7.56
2023-01-02T04:49:49.340Z,7.20
2023-01-02T04:54:50.848Z,7.04
2023-01-02T04:59:52.336Z,6.91
2023-01-02T05:04:53.791Z,6.72
2023-01-02T05:09:55.275Z,6.82
2023-01-02T05:14:56.764Z,6.78
2023-01-02T05:19:58.278Z,6.88
2023-01-02T05:24:59.774Z,6.96
2023-01-02T05:30:01.322Z,6.88
2023-01-02T05:35:03.188Z,6.85
2023-01-02T05:40:05.175Z,6.86
2023-01-02T05:45:07.306Z,7.01
2023-01-02T05:50:08.954Z,7.00
2023-01-02T05:55:10.409Z,7.11
2023-01-02T06:00:12.719Z,7.36
2023-01-02T06:05:17.238Z,7.42
2023-01-02T06:10:18.866Z,7.31
2023-01-02T06:15:21.036Z,7.15
2023-01-02T06:20:22.803Z,7.10
2023-01-02T06:25:24.397Z,7.02
2023-01-02T06:30:26.130Z,6.94
2023-01-02T06:35:27.726Z,6.98
2023-01-02T06:40:29.352Z,7.02
2023-01-02T06:45:30.950Z,7.01
2023-01-02T06:50:35.146Z,7.00
2023-01-02T06:55:37.061Z,6.97
2023-01-02T07:00:38.890Z,6.97
2023-01-02T07:05:40.492Z,6.93
2023-01-02T07:10:42.144Z,6.97
2023-01-02T07:15:43.879Z,6.97
2023-01-02T07:20:53.883Z,6.97
2023-01-02T07:25:57.823Z,6.96
2023-01-02T07:31:04.079Z,7.17
2023-01-02T07:36:07.956Z,7.16
2023-01-02T07:41:16.184Z,7.13
2023-01-02T07:46:19.669Z,7.18
2023-01-02T07:51:27.071Z,7.28
2023-01-02T07:56:30.098Z,7.44
2023-01-02T08:01:31.810Z,7.38
2023-01-02T08:06:33.856Z,7.51
2023-01-02T08:11:35.432Z,7.68
2023-01-02T08:16:37.199Z,7.77
2023-01-02T08:21:38.775Z,7.85
2023-01-02T08:26:40.467Z,7.96
2023-01-02T08:31:44.092Z,8.16
2023-01-02T08:36:45.890Z,8.05
2023-01-02T08:41:47.505Z,8.08
2023-01-02T08:46:49.073Z,8.00
2023-01-02T08:51:50.674Z,8.16
2023-01-02T08:56:52.414Z,8.11
2023-01-02T09:01:54.458Z,8.30
2023-01-02T09:06:56.061Z,8.40
2023-01-02T09:11:57.603Z,8.52
2023-01-02T09:16:59.337Z,8.57
2023-01-02T09:22:00.970Z,8.61
2023-01-02T09:27:02.571Z,8.93
2023-01-02T09:32:04.704Z,9.17
2023-01-02T09:37:06.180Z,9.55
2023-01-02T09:42:14.356Z,9.53
2023-01-02T09:47:23.696Z,9.66
2023-01-02T09:52:28.862Z,9.89
2023-01-02T09:57:43.319Z,10.10
2023-01-02T10:02:47.722Z,10.17
2023-01-02T10:08:11.520Z,10.47
2023-01-02T10:13:21.247Z,10.73
2023-01-02T10:18:38.247Z,11.00
2023-01-02T10:23:45.313Z,11.25
2023-01-02T10:28:46.884Z,11.39
2023-01-02T10:33:55.698Z,11.43
2023-01-02T10:39:03.688Z,11.43
2023-01-02T10:44:19.395Z,11.70
2023-01-02T10:49:23.610Z,11.78
2023-01-02T10:54:25.179Z,12.12
2023-01-02T10:59:28.861Z,12.35
2023-01-02T11:04:30.866Z,12.55
2023-01-02T11:09:34.458Z,12.83
2023-01-02T11:14:37.777Z,13.19
2023-01-02T11:19:51.470Z,13.90
2023-01-02T11:25:00.754Z,14.57
2023-01-02T11:30:05.812Z,15.45
2023-01-02T11:35:37.651Z,16.89
2023-01-02T11:40:51.930Z,16.20
2023-01-02T11:45:54.419Z,15.42
2023-01-02T11:50:56.036Z,14.78
2023-01-02T11:56:37.295Z,14.25
2023-01-02T12:01:57.554Z,14.24
2023-01-02T12:07:23.253Z,14.28
2023-01-02T12:12:40.933Z,14.32
2023-01-02T12:18:06.737Z,14.28
2023-01-02T12:23:35.226Z,14.23
2023-01-02T12:28:50.000Z,14.12
2023-01-02T12:34:29.627Z,13.98
2023-01-02T12:39:46.229Z,14.01
2023-01-02T12:44:52.328Z,14.29
2023-01-02T12:50:27.897Z,14.71
2023-01-02T12:55:51.372Z,15.08
2023-01-02T13:01:26.179Z,15.52
2023-01-02T13:06:45.405Z,15.73
2023-01-02T13:12:21.960Z,15.83
2023-01-02T13:17:44.965Z,15.79
2023-01-02T13:23:03.442Z,15.83
2023-01-02T13:28:05.071Z,15.87
2023-01-02T13:33:36.135Z,15.79
2023-01-02T13:38:37.700Z,15.80
2023-01-02T13:43:39.466Z,15.77
2023-01-02T13:48:46.061Z,15.80
2023-01-02T13:53:50.634Z,15.69
2023-01-02T13:58:57.852Z,15.60
2023-01-02T14:04:11.560Z,15.58
2023-01-02T14:09:20.105Z,15.58
2023-01-02T14:14:40.223Z,15.49
2023-01-02T14:19:42.118Z,15.32
2023-01-02T14:24:52.735Z,15.36
2023-01-02T14:29:59.740Z,15.30
2023-01-02T14:35:04.907Z,15.40
2023-01-02T14:40:34.515Z,15.43
2023-01-02T14:45:45.987Z,15.43
2023-01-02T14:50:49.203Z,15.45
2023-01-02T14:55:55.932Z,15.33
2023-01-02T15:01:04.238Z,15.17
2023-01-02T15:06:34.732Z,15.10
2023-01-02T15:11:36.328Z,15.04
2023-01-02T15:16:46.736Z,14.99
2023-01-02T15:21:48.416Z,14.81
2023-01-02T15:26:50.304Z,14.82
2023-01-02T15:31:53.199Z,14.77
2023-01-02T15:36:55.891Z,14.68
2023-01-02T15:41:58.039Z,14.70
2023-01-02T15:47:00.259Z,14.41
2023-01-02T15:52:03.555Z,14.60
2023-01-02T15:57:12.357Z,14.53
2023-01-02T16:02:35.092Z,14.46
2023-01-02T16:07:37.165Z,14.40
2023-01-02T16:12:39.469Z,14.11
2023-01-02T16:17:45.989Z,14.12
2023-01-02T16:22:59.463Z,14.20
2023-01-02T16:28:03.956Z,14.22
2023-01-02T16:33:28.385Z,14.17
2023-01-02T16:38:31.199Z,14.16
2023-01-02T16:43:38.042Z,14.24
2023-01-02T16:48:44.703Z,14.20
2023-01-02T16:53:46.526Z,14.33
2023-01-02T16:58:48.294Z,14.44
2023-01-02T17:03:49.891Z,14.43
2023-01-02T17:08:51.648Z,14.32
2023-01-02T17:13:53.162Z,14.24
2023-01-02T17:18:54.685Z,14.32
2023-01-02T17:23:56.280Z,14.18
2023-01-02T17:28:57.860Z,14.09
2023-01-02T17:34:00.970Z,14.07
2023-01-02T17:39:02.496Z,14.00
2023-01-02T17:44:04.200Z,13.89
2023-01-02T17:49:05.705Z,13.81
2023-01-02T17:54:07.239Z,13.71
2023-01-02T17:59:08.932Z,13.66
2023-01-02T18:04:10.378Z,13.61
2023-01-02T18:09:11.834Z,13.47
2023-01-02T18:14:21.944Z,13.41
2023-01-02T18:19:26.149Z,13.35
2023-01-02T18:24:30.592Z,13.24
2023-01-02T18:29:32.135Z,13.00
2023-01-02T18:34:54.715Z,12.95
2023-01-02T18:40:00.502Z,13.05
2023-01-02T18:45:12.203Z,13.02
2023-01-02T18:50:19.715Z,12.88
2023-01-02T18:55:25.902Z,12.82
2023-01-02T19:00:31.987Z,12.86
2023-01-02T19:05:37.461Z,13.03
2023-01-02T19:10:42.615Z,13.24
2023-01-02T19:15:47.192Z,13.31
2023-01-02T19:21:08.187Z,13.39
2023-01-02T19:26:33.637Z,13.29
2023-01-02T19:31:51.924Z,13.25
2023-01-02T19:37:05.041Z,13.04
2023-01-02T19:42:07.670Z,12.92
2023-01-02T19:47:09.158Z,12.57
2023-01-02T19:52:11.494Z,12.60
2023-01-02T19:57:14.030Z,12.60
2023-01-02T20:02:17.977Z,12.67
2023-01-02T20:07:20.910Z,12.76
2023-01-02T20:12:22.515Z,12.72
2023-01-02T20:17:24.035Z,12.72
2023-01-02T20:22:26.770Z,12.70
2023-01-02T20:27:28.502Z,12.93
2023-01-02T20:32:29.985Z,12.96
2023-01-02T20:37:32.408Z,12.98
2023-01-02T20:42:33.913Z,12.95
2023-01-02T20:47:35.520Z,12.96
2023-01-02T20:52:38.438Z,12.97
2023-01-02T20:57:39.986Z,12.90
2023-01-02T21:02:41.654Z,13.02
2023-01-02T21:07:43.277Z,12.92
2023-01-02T21:12:44.739Z,12.86
2023-01-02T21:17:46.300Z,12.79
2023-01-02T21:22:47.797Z,12.78
2023-01-02T21:27:49.356Z,12.88
2023-01-02T21:32:50.864Z,12.91
2023-01-02T21:37:52.799Z,12.88
2023-01-02T21:42:54.485Z,12.83
2023-01-02T21:47:55.948Z,12.84
2023-01-02T21:52:57.474Z,12.93
2023-01-02T21:58:15.100Z,12.68
2023-01-02T22:03:16.998Z,12.66
2023-01-02T22:08:18.651Z,12.57
2023-01-02T22:13:20.123Z,12.59
2023-01-02T22:18:21.742Z,12.62
2023-01-02T22:23:23.213Z,12.58
2023-01-02T22:28:24.781Z,12.51
2023-01-02T22:33:26.364Z,12.41
2023-01-02T22:38:27.983Z,12.60
2023-01-02T22:43:35.780Z,12.48
2023-01-02T22:48:38.884Z,12.46
2023-01-02T22:53:40.852Z,12.55
2023-01-02T22:58:42.993Z,12.40
2023-01-02T23:03:46.856Z,12.03
2023-01-02T23:08:48.442Z,12.04
2023-01-02T23:13:56.298Z,12.05
2023-01-02T23:18:58.259Z,12.00
2023-01-02T23:24:00.449Z,12.41
2023-01-02T23:29:07.002Z,12.05
2023-01-02T23:34:11.915Z,12.31
2023-01-02T23:39:17.977Z,12.49
2023-01-02T23:44:20.390Z,12.43
2023-01-02T23:49:22.514Z,12.29
2023-01-02T23:54:24.193Z,12.09
2023-01-02T23:59:26.233Z,12.12
